createdAt,value
2022-11-22T06:12:54.742Z,0.17
2022-11-22T06:13:54.739Z,0.17
2022-11-22T06:14:54.752Z,0.17
2022-11-22T06:15:54.707Z,0.11
2022-11-22T06:21:54.646Z,0.00
2022-11-22T06:22:54.632Z,0.04
2022-11-22T06:23:54.622Z,0.04
2022-11-22T06:24:54.612Z,0.02
2022-11-22T06:25:54.594Z,0.02
2022-11-22T06:26:54.589Z,0.05
2022-11-22T06:27:54.578Z,0.04
2022-11-22T06:28:54.564Z,0.00
2022-11-22T06:29:54.549Z,0.00
2022-11-22T06:31:55.229Z,0.00
2022-11-22T06:32:54.522Z,0.02
2022-11-22T06:33:54.511Z,0.04
2022-11-22T06:34:54.502Z,0.07
2022-11-22T06:35:54.487Z,0.02
2022-11-22T06:36:54.480Z,0.04
2022-11-22T06:38:00.353Z,0.07
2022-11-22T06:38:54.460Z,0.09
2022-11-22T06:39:54.444Z,0.11
2022-11-22T06:40:54.433Z,0.12
2022-11-22T06:41:54.420Z,0.15
2022-11-22T06:42:54.412Z,0.12
2022-11-22T06:43:54.401Z,0.14
2022-11-22T06:44:54.382Z,0.17
2022-11-22T06:45:54.377Z,0.17
2022-11-22T06:46:54.388Z,0.18
2022-11-22T06:47:54.367Z,0.17
2022-11-22T06:48:54.337Z,0.17
2022-11-22T06:49:54.340Z,0.07
2022-11-22T06:50:54.325Z,0.04
2022-11-22T06:51:54.306Z,0.09
2022-11-22T06:52:54.302Z,0.14
2022-11-22T06:53:54.385Z,0.18
2022-11-22T06:54:54.272Z,0.20
2022-11-22T06:55:59.759Z,0.23
2022-11-22T06:56:54.251Z,0.25
2022-11-22T06:57:54.253Z,0.29
2022-11-22T06:58:54.230Z,0.27
2022-11-22T06:59:54.226Z,0.27
2022-11-22T07:00:54.280Z,0.25
2022-11-22T07:01:54.248Z,0.26
2022-11-22T07:02:56.211Z,0.29
2022-11-22T07:03:54.187Z,0.27
2022-11-22T07:05:23.263Z,0.29
2022-11-22T07:05:54.155Z,0.32
2022-11-22T07:06:54.153Z,0.27
2022-11-22T07:07:56.760Z,0.30
2022-11-22T07:08:54.128Z,0.26
2022-11-22T07:09:56.523Z,0.27
2022-11-22T07:10:54.106Z,0.25
2022-11-22T07:11:54.098Z,0.26
2022-11-22T07:12:54.076Z,0.29
2022-11-22T07:13:54.072Z,0.33
2022-11-22T07:14:54.070Z,0.36
2022-11-22T07:15:54.050Z,0.36
2022-11-22T07:16:54.035Z,0.37
2022-11-22T07:17:54.029Z,0.43
2022-11-22T07:18:54.039Z,0.41
2022-11-22T07:19:54.012Z,0.43
2022-11-22T07:20:54.003Z,0.43
2022-11-22T07:21:53.988Z,0.43
2022-11-22T07:22:53.977Z,0.41
2022-11-22T07:23:53.968Z,0.43
2022-11-22T07:24:53.943Z,0.45
2022-11-22T07:25:53.936Z,0.48
2022-11-22T07:26:53.928Z,0.51
2022-11-22T07:27:55.909Z,0.51
2022-11-22T07:28:53.920Z,0.53
2022-11-22T07:29:53.892Z,0.54
2022-11-22T07:30:53.888Z,0.55
2022-11-22T07:31:55.877Z,0.58
2022-11-22T07:32:55.855Z,0.59
2022-11-22T07:33:53.844Z,0.61
2022-11-22T07:34:53.873Z,0.61
2022-11-22T07:35:53.846Z,0.62
2022-11-22T07:36:59.058Z,0.62
2022-11-22T07:37:53.808Z,0.65
2022-11-22T07:38:53.795Z,0.65
2022-11-22T07:39:53.779Z,0.65
2022-11-22T07:40:53.782Z,0.66
2022-11-22T07:41:53.763Z,0.66
2022-11-22T07:42:58.285Z,0.66
2022-11-22T07:43:53.742Z,0.66
2022-11-22T07:44:53.737Z,0.66
2022-11-22T07:45:53.727Z,0.68
2022-11-22T07:46:53.709Z,0.68
2022-11-22T07:47:53.700Z,0.68
2022-11-22T07:48:55.684Z,0.68
2022-11-22T07:49:53.676Z,0.71
2022-11-22T07:50:53.699Z,0.72
2022-11-22T07:51:53.654Z,0.71
2022-11-22T07:52:53.639Z,0.71
2022-11-22T07:53:53.640Z,0.69
2022-11-22T07:54:53.619Z,0.71
2022-11-22T07:55:53.608Z,0.71
2022-11-22T07:56:53.600Z,0.65
2022-11-22T07:57:53.582Z,0.66
2022-11-22T07:58:53.592Z,0.68
2022-11-22T07:59:55.559Z,0.63
2022-11-22T08:00:53.555Z,0.65
2022-11-22T08:01:53.619Z,0.63
2022-11-22T08:02:53.525Z,0.65
2022-11-22T08:03:53.530Z,0.69
2022-11-22T08:04:55.509Z,0.73
2022-11-22T08:05:53.507Z,0.75
2022-11-22T08:06:53.611Z,0.75
2022-11-22T08:07:53.626Z,0.80
2022-11-22T08:09:01.535Z,0.75
2022-11-22T08:09:53.456Z,0.79
2022-11-22T08:10:53.453Z,0.80
2022-11-22T08:11:53.433Z,0.77
2022-11-22T08:12:53.425Z,0.75
2022-11-22T08:13:53.405Z,0.77
2022-11-22T08:14:55.406Z,0.79
2022-11-22T08:15:54.843Z,0.81
2022-11-22T08:16:53.380Z,0.83
2022-11-22T08:17:53.378Z,0.80
2022-11-22T08:18:53.361Z,0.80
2022-11-22T08:19:53.347Z,0.81
2022-11-22T08:20:53.334Z,0.83
2022-11-22T08:21:58.267Z,0.83
2022-11-22T08:22:53.465Z,0.79
2022-11-22T08:23:53.306Z,0.77
2022-11-22T08:24:53.286Z,0.80
2022-11-22T08:25:53.300Z,0.79
2022-11-22T08:26:53.269Z,0.77
2022-11-22T08:27:53.258Z,0.77
2022-11-22T08:28:53.246Z,0.79
2022-11-22T08:29:53.229Z,0.80
2022-11-22T08:30:53.227Z,0.80
2022-11-22T08:31:53.220Z,0.84
2022-11-22T08:32:53.205Z,0.90
2022-11-22T08:33:53.187Z,0.90
2022-11-22T08:34:53.174Z,0.93
2022-11-22T08:35:53.164Z,0.87
2022-11-22T08:36:53.160Z,0.84
2022-11-22T08:37:53.150Z,0.87
2022-11-22T08:38:53.253Z,0.89
2022-11-22T08:39:53.129Z,0.95
2022-11-22T08:40:53.117Z,0.98
2022-11-22T08:41:53.104Z,1.02
2022-11-22T08:42:53.087Z,1.04
2022-11-22T08:43:53.074Z,1.07
2022-11-22T08:44:53.075Z,0.99
2022-11-22T08:45:55.064Z,0.99
2022-11-22T08:46:53.054Z,1.04
2022-11-22T08:47:53.037Z,1.04
2022-11-22T08:48:53.020Z,1.07
2022-11-22T08:49:53.021Z,1.09
2022-11-22T08:50:53.021Z,1.15
2022-11-22T08:51:53.000Z,1.08
2022-11-22T08:52:52.988Z,1.01
2022-11-22T08:53:52.979Z,1.04
2022-11-22T08:54:53.097Z,1.08
2022-11-22T08:55:52.946Z,1.07
2022-11-22T08:56:52.942Z,1.08
2022-11-22T08:57:52.927Z,1.15
2022-11-22T08:58:53.011Z,1.15
2022-11-22T08:59:52.898Z,1.16
2022-11-22T09:00:52.901Z,1.17
2022-11-22T09:01:52.928Z,1.20
2022-11-22T09:02:52.865Z,1.12
2022-11-22T09:03:52.865Z,1.09
2022-11-22T09:04:52.853Z,1.11
2022-11-22T09:09:15.177Z,1.23
2022-11-22T09:09:52.793Z,1.22
2022-11-22T09:10:52.907Z,1.20
2022-11-22T09:11:52.770Z,1.17
2022-11-22T09:12:52.760Z,1.20
2022-11-22T09:13:52.757Z,1.27
2022-11-22T09:14:52.738Z,1.34
2022-11-22T09:15:52.727Z,1.28
2022-11-22T09:16:52.711Z,1.16
2022-11-22T09:17:52.699Z,1.12
2022-11-22T09:18:52.701Z,1.15
2022-11-22T09:19:52.683Z,1.17
2022-11-22T09:20:52.670Z,1.23
2022-11-22T09:21:52.664Z,1.22
2022-11-22T09:22:52.652Z,1.26
2022-11-22T09:23:52.636Z,1.28
2022-11-22T09:24:52.638Z,1.35
2022-11-22T09:25:52.616Z,1.36
2022-11-22T09:26:52.715Z,1.41
2022-11-22T09:27:52.588Z,1.44
2022-11-22T09:28:52.577Z,1.48
2022-11-22T09:29:52.566Z,1.53
2022-11-22T09:30:52.557Z,1.57
2022-11-22T09:31:52.542Z,1.56
2022-11-22T09:32:52.543Z,1.55
2022-11-22T09:33:52.530Z,1.53
2022-11-22T09:34:52.520Z,1.53
2022-11-22T09:35:52.500Z,1.57
2022-11-22T09:36:52.494Z,1.59
2022-11-22T09:37:52.478Z,1.55
2022-11-22T09:38:52.470Z,1.53
2022-11-22T09:39:52.457Z,1.57
2022-11-22T09:40:52.448Z,1.57
2022-11-22T09:41:52.429Z,1.62
2022-11-22T09:42:52.540Z,1.66
2022-11-22T09:43:52.414Z,1.66
2022-11-22T09:44:52.399Z,1.71
2022-11-22T09:45:52.387Z,1.75
2022-11-22T09:46:52.386Z,1.77
2022-11-22T09:47:52.362Z,1.67
2022-11-22T09:48:52.358Z,1.67
2022-11-22T09:49:52.348Z,1.66
2022-11-22T09:50:52.328Z,1.60
2022-11-22T09:51:52.325Z,1.64
2022-11-22T09:52:52.312Z,1.64
2022-11-22T09:53:52.307Z,1.67
2022-11-22T09:54:52.283Z,1.71
2022-11-22T09:55:52.272Z,1.74
2022-11-22T09:56:52.269Z,1.77
2022-11-22T09:57:52.249Z,1.80
2022-11-22T09:58:52.369Z,1.81
2022-11-22T09:59:52.239Z,1.78
2022-11-22T10:00:52.779Z,1.78
2022-11-22T10:01:52.251Z,1.75
2022-11-22T10:03:00.238Z,1.64
2022-11-22T10:03:52.181Z,1.62
2022-11-22T10:04:52.176Z,1.69
2022-11-22T10:05:52.174Z,1.73
2022-11-22T10:06:52.155Z,1.75
2022-11-22T10:07:52.195Z,1.77
2022-11-22T10:08:52.132Z,1.78
2022-11-22T10:09:52.115Z,1.73
2022-11-22T10:10:52.110Z,1.74
2022-11-22T10:11:52.101Z,1.73
2022-11-22T10:12:52.083Z,1.69
2022-11-22T10:13:54.132Z,1.62
2022-11-22T10:14:52.185Z,1.59
2022-11-22T10:15:52.054Z,1.59
2022-11-22T10:16:52.042Z,1.63
2022-11-22T10:17:52.028Z,1.67
2022-11-22T10:18:52.015Z,1.67
2022-11-22T10:19:52.009Z,1.74
2022-11-22T10:20:52.003Z,1.80
2022-11-22T10:21:51.991Z,1.85
2022-11-22T10:22:51.985Z,1.81
2022-11-22T10:23:52.069Z,1.82
2022-11-22T10:24:51.948Z,1.85
2022-11-22T10:25:51.935Z,1.89
2022-11-22T10:26:51.930Z,1.89
2022-11-22T10:27:54.922Z,1.89
2022-11-22T10:28:51.903Z,1.85
2022-11-22T10:29:51.899Z,1.82
2022-11-22T10:30:52.003Z,1.81
2022-11-22T10:31:51.874Z,1.81
2022-11-22T10:32:51.862Z,1.84
2022-11-22T10:33:51.857Z,1.91
2022-11-22T10:34:51.841Z,1.96
2022-11-22T10:35:51.829Z,2.02
2022-11-22T10:36:51.813Z,2.02
2022-11-22T10:37:51.814Z,2.06
2022-11-22T10:38:51.796Z,2.14
2022-11-22T10:39:51.784Z,2.14
2022-11-22T10:40:51.773Z,2.10
2022-11-22T10:41:51.761Z,2.05
2022-11-22T10:42:51.750Z,2.02
2022-11-22T10:43:51.743Z,1.99
2022-11-22T10:44:51.722Z,1.95
2022-11-22T10:45:51.715Z,1.92
2022-11-22T10:46:56.488Z,1.87
2022-11-22T10:47:51.693Z,1.87
2022-11-22T10:48:51.680Z,1.85
2022-11-22T10:49:51.673Z,1.89
2022-11-22T10:50:51.660Z,1.95
2022-11-22T10:51:51.649Z,1.98
2022-11-22T10:52:51.637Z,2.00
2022-11-22T10:53:51.622Z,2.03
2022-11-22T10:54:51.619Z,2.09
2022-11-22T10:55:51.621Z,2.11
2022-11-22T10:56:51.593Z,2.18
2022-11-22T10:57:51.582Z,2.23
2022-11-22T10:58:51.577Z,2.23
2022-11-22T10:59:51.554Z,2.27
2022-11-22T11:00:51.670Z,2.28
2022-11-22T11:01:51.537Z,2.35
2022-11-22T11:02:51.674Z,2.38
2022-11-22T11:03:51.507Z,2.44
2022-11-22T11:04:51.495Z,2.46
2022-11-22T11:07:56.527Z,2.38
2022-11-22T11:10:51.574Z,2.28
2022-11-22T11:11:51.426Z,2.24
2022-11-22T11:12:51.421Z,2.29
2022-11-22T11:13:51.395Z,2.36
2022-11-22T11:14:51.394Z,2.34
2022-11-22T11:15:56.017Z,2.31
2022-11-22T11:16:51.379Z,2.28
2022-11-22T11:17:51.353Z,2.29
2022-11-22T11:18:51.472Z,2.35
2022-11-22T11:19:51.333Z,2.38
2022-11-22T11:20:51.323Z,2.35
2022-11-22T11:21:51.316Z,2.31
2022-11-22T11:23:13.706Z,2.32
2022-11-22T11:23:51.283Z,2.34
2022-11-22T11:24:51.271Z,2.39
2022-11-22T11:25:51.266Z,2.41
2022-11-22T11:26:51.253Z,2.42
2022-11-22T11:27:51.246Z,2.47
2022-11-22T11:28:51.240Z,2.52
2022-11-22T11:29:51.220Z,2.47
2022-11-22T11:30:51.237Z,2.44
2022-11-22T11:31:51.204Z,2.47
2022-11-22T11:32:51.192Z,2.53
2022-11-22T11:33:51.171Z,2.62
2022-11-22T11:34:51.292Z,2.71
2022-11-22T11:35:51.150Z,2.76
2022-11-22T11:36:51.148Z,2.79
2022-11-22T11:37:51.136Z,2.76
2022-11-22T11:38:51.123Z,2.75
2022-11-22T11:39:51.115Z,2.78
2022-11-22T11:40:51.103Z,2.82
2022-11-22T11:41:51.091Z,2.86
2022-11-22T11:42:51.073Z,2.89
2022-11-22T11:43:51.078Z,2.89
2022-11-22T11:44:51.050Z,2.87
2022-11-22T11:45:51.056Z,2.89
2022-11-22T11:46:51.047Z,2.89
2022-11-22T11:47:51.019Z,2.94
2022-11-22T11:48:51.056Z,2.97
2022-11-22T11:49:51.022Z,2.97
2022-11-22T11:50:51.110Z,2.97
2022-11-22T11:51:50.979Z,2.97
2022-11-22T11:52:50.970Z,2.99
2022-11-22T11:53:50.957Z,3.04
2022-11-22T11:54:50.948Z,3.04
2022-11-22T11:55:50.936Z,3.08
2022-11-22T11:56:50.926Z,3.11
2022-11-22T11:57:50.909Z,3.12
2022-11-22T11:58:50.899Z,3.15
2022-11-22T11:59:50.895Z,3.17
2022-11-22T12:00:50.877Z,3.18
2022-11-22T12:01:50.917Z,3.18
2022-11-22T12:02:51.013Z,3.14
2022-11-22T12:03:50.843Z,3.11
2022-11-22T12:04:50.837Z,3.11
2022-11-22T12:05:50.819Z,3.12
2022-11-22T12:06:50.968Z,3.12
2022-11-22T12:07:50.864Z,3.11
2022-11-22T12:08:50.796Z,3.07
2022-11-22T12:09:50.784Z,3.05
2022-11-22T12:10:50.773Z,3.09
2022-11-22T12:11:50.755Z,3.12
2022-11-22T12:12:50.750Z,3.05
2022-11-22T12:14:18.918Z,3.02
2022-11-22T12:15:10.087Z,3.09
2022-11-22T12:15:50.713Z,3.11
2022-11-22T12:16:50.698Z,3.12
2022-11-22T12:17:50.693Z,3.15
2022-11-22T12:18:50.683Z,3.18
2022-11-22T12:19:50.680Z,3.20
2022-11-22T12:20:50.662Z,3.22
2022-11-22T12:21:50.656Z,3.18
2022-11-22T12:22:50.992Z,3.12
2022-11-22T12:23:51.214Z,3.11
2022-11-22T12:25:09.754Z,3.05
2022-11-22T12:25:50.605Z,2.99
2022-11-22T12:26:50.591Z,2.97
2022-11-22T12:27:50.577Z,2.97
2022-11-22T12:28:50.580Z,3.07
2022-11-22T12:29:50.563Z,3.12
2022-11-22T12:30:50.564Z,3.17
2022-11-22T12:31:50.533Z,3.23
2022-11-22T12:32:50.536Z,3.25
2022-11-22T12:33:50.515Z,3.26
2022-11-22T12:34:50.513Z,3.27
2022-11-22T12:35:50.490Z,3.29
2022-11-22T12:36:50.492Z,3.30
2022-11-22T12:37:50.467Z,3.33
2022-11-22T12:38:50.577Z,3.35
2022-11-22T12:39:50.445Z,3.36
2022-11-22T12:40:50.442Z,3.37
2022-11-22T12:41:50.434Z,3.36
2022-11-22T12:42:50.434Z,3.37
2022-11-22T12:43:50.411Z,3.40
2022-11-22T12:44:50.401Z,3.40
2022-11-22T12:45:50.381Z,3.37
2022-11-22T12:46:50.376Z,3.35
2022-11-22T12:47:50.362Z,3.32
2022-11-22T12:48:50.362Z,3.33
2022-11-22T12:49:50.346Z,3.33
2022-11-22T12:50:50.330Z,3.26
2022-11-22T12:51:50.316Z,3.23
2022-11-22T12:52:50.313Z,3.23
2022-11-22T12:53:50.297Z,3.25
2022-11-22T12:54:50.420Z,3.23
2022-11-22T12:55:50.275Z,3.26
2022-11-22T12:56:50.265Z,3.22
2022-11-22T12:57:50.254Z,3.22
2022-11-22T12:58:50.244Z,3.20
2022-11-22T12:59:50.242Z,3.23
2022-11-22T13:00:50.244Z,3.29
2022-11-22T13:01:50.261Z,3.29
2022-11-22T13:02:54.501Z,3.30
2022-11-22T13:03:50.193Z,3.29
2022-11-22T13:04:50.176Z,3.26
2022-11-22T13:05:50.158Z,3.27
2022-11-22T13:06:50.159Z,3.32
2022-11-22T13:07:50.204Z,3.35
2022-11-22T13:08:54.624Z,3.40
2022-11-22T13:09:50.115Z,3.41
2022-11-22T13:10:50.230Z,3.43
2022-11-22T13:11:50.141Z,3.43
2022-11-22T13:12:50.080Z,3.44
2022-11-22T13:13:50.086Z,3.43
2022-11-22T13:14:50.066Z,3.47
2022-11-22T13:15:50.056Z,3.50
2022-11-22T13:16:50.045Z,3.50
2022-11-22T13:17:50.028Z,3.51
2022-11-22T13:18:50.027Z,3.53
2022-11-22T13:19:50.011Z,3.54
2022-11-22T13:20:49.993Z,3.53
2022-11-22T13:21:49.982Z,3.51
2022-11-22T13:22:49.972Z,3.55
2022-11-22T13:23:49.971Z,3.54
2022-11-22T13:24:49.960Z,3.53
2022-11-22T13:25:49.951Z,3.45
2022-11-22T13:26:50.056Z,3.47
2022-11-22T13:27:49.935Z,3.48
2022-11-22T13:28:49.910Z,3.50
2022-11-22T13:29:49.893Z,3.53
2022-11-22T13:30:49.888Z,3.48
2022-11-22T13:31:49.874Z,3.47
2022-11-22T13:32:49.862Z,3.47
2022-11-22T13:33:49.862Z,3.45
2022-11-22T13:34:49.840Z,3.44
2022-11-22T13:35:49.840Z,3.37
2022-11-22T13:36:49.815Z,3.36
2022-11-22T13:37:49.811Z,3.35
2022-11-22T13:38:49.800Z,3.37
2022-11-22T13:39:49.783Z,3.36
2022-11-22T13:40:49.777Z,3.32
2022-11-22T13:41:49.767Z,3.26
2022-11-22T13:42:49.870Z,3.25
2022-11-22T13:43:49.739Z,3.29
2022-11-22T13:44:49.727Z,3.32
2022-11-22T13:45:49.716Z,3.30
2022-11-22T13:46:49.719Z,3.32
2022-11-22T13:47:49.702Z,3.35
2022-11-22T13:48:49.692Z,3.35
2022-11-22T13:49:49.679Z,3.32
2022-11-22T13:50:49.666Z,3.29
2022-11-22T13:51:49.653Z,3.30
2022-11-22T13:52:49.642Z,3.30
2022-11-22T13:53:49.639Z,3.35
2022-11-22T13:54:49.658Z,3.36
2022-11-22T13:55:49.609Z,3.35
2022-11-22T13:56:49.603Z,3.35
2022-11-22T13:57:49.583Z,3.33
2022-11-22T13:58:51.412Z,3.35
2022-11-22T13:59:49.569Z,3.35
2022-11-22T14:00:49.677Z,3.33
2022-11-22T14:01:49.545Z,3.35
2022-11-22T14:02:49.529Z,3.40
2022-11-22T14:03:49.529Z,3.41
2022-11-22T14:04:49.506Z,3.40
2022-11-22T14:05:49.494Z,3.37
2022-11-22T14:06:49.496Z,3.37
2022-11-22T14:07:49.567Z,3.40
2022-11-22T14:08:49.469Z,3.43
2022-11-22T14:09:49.450Z,3.45
2022-11-22T14:10:49.446Z,3.45
2022-11-22T14:11:49.441Z,3.47
2022-11-22T14:12:49.424Z,3.48
2022-11-22T14:13:49.410Z,3.50
2022-11-22T14:14:49.548Z,3.50
2022-11-22T14:15:49.392Z,3.48
2022-11-22T14:16:49.372Z,3.51
2022-11-22T14:17:49.372Z,3.53
2022-11-22T14:18:49.362Z,3.54
2022-11-22T14:19:49.341Z,3.53
2022-11-22T14:20:49.334Z,3.51
2022-11-22T14:21:49.322Z,3.51
2022-11-22T14:22:49.317Z,3.51
2022-11-22T14:23:49.297Z,3.51
2022-11-22T14:24:49.290Z,3.47
2022-11-22T14:25:49.283Z,3.41
2022-11-22T14:26:49.264Z,3.35
2022-11-22T14:27:49.259Z,3.40
2022-11-22T14:28:49.249Z,3.40
2022-11-22T14:29:53.863Z,3.36
2022-11-22T14:30:49.271Z,3.36
2022-11-22T14:31:51.207Z,3.33
2022-11-22T14:32:49.202Z,3.27
2022-11-22T14:33:49.195Z,3.22
2022-11-22T14:34:49.187Z,3.23
2022-11-22T14:35:51.164Z,3.26
2022-11-22T14:36:49.161Z,3.30
2022-11-22T14:37:49.159Z,3.36
2022-11-22T14:38:49.142Z,3.43
2022-11-22T14:39:49.124Z,3.45
2022-11-22T14:40:49.109Z,3.45
2022-11-22T14:41:49.099Z,3.50
2022-11-22T14:42:49.094Z,3.53
2022-11-22T14:43:49.076Z,3.51
2022-11-22T14:44:49.064Z,3.53
2022-11-22T14:45:49.172Z,3.51
2022-11-22T14:46:53.657Z,3.53
2022-11-22T14:47:49.031Z,3.54
2022-11-22T14:48:49.032Z,3.51
2022-11-22T14:49:49.016Z,3.54
2022-11-22T14:50:48.998Z,3.54
2022-11-22T14:51:50.994Z,3.51
2022-11-22T14:52:48.976Z,3.50
2022-11-22T14:53:48.965Z,3.48
2022-11-22T14:54:50.961Z,3.45
2022-11-22T14:55:48.956Z,3.47
2022-11-22T14:56:48.943Z,3.40
2022-11-22T14:57:48.931Z,3.36
2022-11-22T14:58:48.917Z,3.36
2022-11-22T14:59:48.901Z,3.41
2022-11-22T15:00:48.888Z,3.44
2022-11-22T15:01:51.047Z,3.48
2022-11-22T15:02:48.867Z,3.51
2022-11-22T15:03:48.870Z,3.50
2022-11-22T15:09:12.135Z,3.44
2022-11-22T15:09:12.139Z,3.47
2022-11-22T15:09:12.948Z,3.50
2022-11-22T15:09:14.155Z,3.51
2022-11-22T15:09:20.799Z,3.47
2022-11-22T15:09:53.325Z,3.47
2022-11-22T15:10:48.894Z,3.47
2022-11-22T15:11:48.770Z,3.47
2022-11-22T15:12:48.764Z,3.43
2022-11-22T15:13:48.744Z,3.37
2022-11-22T15:14:48.747Z,3.35
2022-11-22T15:57:50.266Z,3.32
2022-11-22T15:58:48.257Z,3.36
2022-11-22T15:59:50.242Z,3.35
2022-11-22T16:00:48.378Z,3.36
2022-11-22T16:01:48.319Z,3.37
2022-11-22T16:02:48.205Z,3.43
2022-11-22T16:03:50.199Z,3.43
2022-11-22T16:04:48.184Z,3.47
2022-11-22T16:06:06.580Z,3.50
2022-11-22T16:06:48.160Z,3.50
2022-11-22T16:07:48.289Z,3.50
2022-11-22T16:08:48.151Z,3.50
2022-11-22T16:09:50.125Z,3.48
2022-11-22T16:10:48.122Z,3.40
2022-11-22T16:11:48.105Z,3.33
2022-11-22T16:12:48.095Z,3.33
2022-11-22T16:13:48.082Z,3.36
2022-11-22T16:14:48.073Z,3.44
2022-11-22T16:15:48.066Z,3.45
2022-11-22T16:16:48.053Z,3.51
2022-11-22T16:17:48.049Z,3.55
2022-11-22T16:18:48.032Z,3.59
2022-11-22T16:19:48.020Z,3.61
2022-11-22T16:20:48.004Z,3.61
2022-11-22T16:21:48.117Z,3.55
2022-11-22T16:22:47.982Z,3.59
2022-11-22T16:23:47.971Z,3.55
2022-11-22T16:24:47.960Z,3.54
2022-11-22T16:25:47.958Z,3.55
2022-11-22T16:26:47.944Z,3.61
2022-11-22T16:27:47.933Z,3.63
2022-11-22T16:28:47.923Z,3.65
2022-11-22T16:29:47.912Z,3.65
2022-11-22T16:30:47.963Z,3.65
2022-11-22T16:31:47.891Z,3.65
2022-11-22T16:32:47.870Z,3.66
2022-11-22T16:33:47.880Z,3.68
2022-11-22T16:34:51.558Z,3.69
2022-11-22T16:35:47.849Z,3.69
2022-11-22T16:36:47.834Z,3.69
2022-11-22T16:37:48.463Z,3.65
2022-11-22T16:38:47.804Z,3.59
2022-11-22T16:39:47.797Z,3.58
2022-11-22T16:40:47.787Z,3.59
2022-11-22T16:41:47.777Z,3.62
2022-11-22T16:42:47.761Z,3.63
2022-11-22T16:43:47.756Z,3.62
2022-11-22T16:44:47.736Z,3.63
2022-11-22T16:45:47.727Z,3.63
2022-11-22T16:46:47.721Z,3.58
2022-11-22T16:47:58.280Z,3.54
2022-11-22T16:48:47.705Z,3.55
2022-11-22T16:49:47.689Z,3.62
2022-11-22T16:50:47.675Z,3.62
2022-11-22T16:51:53.664Z,3.54
2022-11-22T16:52:47.760Z,3.37
2022-11-22T16:53:47.766Z,3.29
2022-11-22T16:54:47.628Z,3.25
2022-11-22T16:55:47.614Z,3.20
2022-11-22T16:56:47.609Z,3.18
2022-11-22T16:57:47.609Z,3.23
2022-11-22T16:58:47.581Z,3.20
2022-11-22T16:59:47.569Z,3.22
2022-11-22T17:00:47.608Z,3.20
2022-11-22T17:01:47.558Z,3.20
2022-11-22T17:02:47.545Z,3.22
2022-11-22T17:03:47.533Z,3.23
2022-11-22T17:04:47.522Z,3.25
2022-11-22T17:05:47.510Z,3.26
2022-11-22T17:06:47.500Z,3.20
2022-11-22T17:07:47.562Z,3.18
2022-11-22T17:08:47.476Z,3.22
2022-11-22T17:09:47.498Z,3.27
2022-11-22T17:10:47.447Z,3.32
2022-11-22T17:11:47.442Z,3.33
2022-11-22T17:12:47.425Z,3.29
2022-11-22T17:13:47.414Z,3.22
2022-11-22T17:14:47.418Z,3.23
2022-11-22T17:15:47.400Z,3.27
2022-11-22T17:16:47.389Z,3.32
2022-11-22T17:17:47.386Z,3.35
2022-11-22T17:18:47.502Z,3.40
2022-11-22T17:19:53.035Z,3.44
2022-11-22T17:20:47.347Z,3.45
2022-11-22T17:21:47.335Z,3.44
2022-11-22T17:22:47.323Z,3.45
2022-11-22T17:23:47.307Z,3.48
2022-11-22T17:24:47.298Z,3.50
2022-11-22T17:25:49.402Z,3.51
2022-11-22T17:26:47.269Z,3.53
2022-11-22T17:27:52.875Z,3.53
2022-11-22T17:28:47.262Z,3.53
2022-11-22T17:29:51.139Z,3.51
2022-11-22T17:30:47.233Z,3.50
2022-11-22T17:31:47.218Z,3.50
2022-11-22T17:32:47.220Z,3.51
2022-11-22T17:33:47.191Z,3.55
2022-11-22T17:34:47.183Z,3.48
2022-11-22T17:35:47.176Z,3.41
2022-11-22T17:36:47.159Z,3.33
2022-11-22T17:37:47.153Z,3.33
2022-11-22T17:38:47.139Z,3.36
2022-11-22T17:39:47.124Z,3.32
2022-11-22T17:40:47.116Z,3.25
2022-11-22T17:41:47.240Z,3.20
2022-11-22T17:42:47.094Z,3.18
2022-11-22T17:43:47.082Z,3.20
2022-11-22T17:44:47.079Z,3.22
2022-11-22T17:45:47.065Z,3.23
2022-11-22T17:46:47.062Z,3.22
2022-11-22T17:47:47.044Z,3.18
2022-11-22T17:48:47.032Z,3.12
2022-11-22T17:49:47.020Z,3.09
2022-11-22T17:50:47.012Z,3.15
2022-11-22T17:51:47.004Z,3.12
2022-11-22T17:52:46.996Z,3.15
2022-11-22T17:53:46.976Z,3.22
2022-11-22T17:54:46.966Z,3.26
2022-11-22T17:56:09.365Z,3.30
2022-11-22T17:56:46.942Z,3.37
2022-11-22T17:57:49.442Z,3.36
2022-11-22T17:58:46.914Z,3.37
2022-11-22T17:59:46.917Z,3.36
2022-11-22T18:00:46.893Z,3.29
2022-11-22T18:01:46.890Z,3.26
2022-11-22T18:02:47.011Z,3.29
2022-11-22T18:03:46.987Z,3.26
2022-11-22T18:04:52.855Z,3.20
2022-11-22T18:05:46.847Z,3.18
2022-11-22T18:06:46.826Z,3.23
2022-11-22T18:07:46.884Z,3.26
2022-11-22T18:08:47.497Z,3.20
2022-11-22T18:09:46.806Z,3.20
2022-11-22T18:10:46.786Z,3.23
2022-11-22T18:11:46.777Z,3.22
2022-11-22T18:13:13.651Z,3.26
2022-11-22T18:13:46.884Z,3.30
2022-11-22T18:14:46.737Z,3.35
2022-11-22T18:15:46.744Z,3.30
2022-11-22T18:16:46.723Z,3.33
2022-11-22T18:17:46.732Z,3.40
2022-11-22T18:19:02.030Z,3.40
2022-11-22T18:19:46.696Z,3.37
2022-11-22T18:20:46.679Z,3.36
2022-11-22T18:21:46.668Z,3.41
2022-11-22T18:22:46.657Z,3.45
2022-11-22T18:23:46.648Z,3.45
2022-11-22T18:24:46.633Z,3.43
2022-11-22T18:25:46.621Z,3.33
2022-11-22T18:26:46.611Z,3.32
2022-11-22T18:27:46.601Z,3.32
2022-11-22T18:29:02.478Z,3.36
2022-11-22T18:29:46.691Z,3.32
2022-11-22T18:30:46.563Z,3.30
2022-11-22T18:31:54.275Z,3.32
2022-11-22T18:32:46.545Z,3.35
2022-11-22T18:33:46.528Z,3.33
2022-11-22T18:34:46.520Z,3.27
2022-11-22T18:35:56.130Z,3.25
2022-11-22T18:36:56.235Z,3.17
2022-11-22T18:37:46.497Z,3.15
2022-11-22T18:38:46.923Z,3.14
2022-11-22T18:39:46.468Z,3.17
2022-11-22T18:40:46.449Z,3.20
2022-11-22T18:41:46.446Z,3.18
2022-11-22T18:42:46.434Z,3.20
2022-11-22T18:43:46.428Z,3.22
2022-11-22T18:44:46.417Z,3.23
2022-11-22T18:45:46.528Z,3.25
2022-11-22T18:46:46.391Z,3.29
2022-11-22T18:47:46.386Z,3.30
2022-11-22T18:48:46.363Z,3.36
2022-11-22T18:49:46.356Z,3.40
2022-11-22T18:50:46.340Z,3.37
2022-11-22T18:51:46.405Z,3.33
2022-11-22T18:52:46.319Z,3.35
2022-11-22T18:53:46.313Z,3.37
2022-11-22T18:54:46.298Z,3.29
2022-11-22T18:55:46.291Z,3.25
2022-11-22T18:56:46.277Z,3.22
2022-11-22T18:57:46.262Z,3.22
2022-11-22T18:58:46.257Z,3.22
2022-11-22T18:59:46.246Z,3.20
2022-11-22T19:00:46.284Z,3.23
2022-11-22T19:01:46.340Z,3.25
2022-11-22T19:02:46.207Z,3.23
2022-11-22T19:03:46.199Z,3.23
2022-11-22T19:04:46.191Z,3.22
2022-11-22T19:05:46.175Z,3.18
2022-11-22T19:06:46.175Z,3.12
2022-11-22T19:07:46.198Z,3.15
2022-11-22T19:08:46.142Z,3.17
2022-11-22T19:09:46.137Z,3.22
2022-11-22T19:10:46.119Z,3.20
2022-11-22T19:11:46.112Z,3.23
2022-11-22T19:12:46.098Z,3.20
2022-11-22T19:13:46.085Z,3.25
2022-11-22T19:14:46.074Z,3.29
2022-11-22T19:15:46.071Z,3.30
2022-11-22T19:16:46.057Z,3.32
2022-11-22T19:17:46.169Z,3.30
2022-11-22T19:18:46.049Z,3.30
2022-11-22T19:19:46.024Z,3.27
2022-11-22T19:20:55.073Z,3.22
2022-11-22T19:21:46.030Z,3.20
2022-11-22T19:22:45.995Z,3.22
2022-11-22T19:23:45.983Z,3.25
2022-11-22T19:24:47.325Z,3.25
2022-11-22T19:25:45.954Z,3.27
2022-11-22T19:26:45.941Z,3.26
2022-11-22T19:27:45.931Z,3.20
2022-11-22T19:28:45.927Z,3.14
2022-11-22T19:29:46.006Z,3.11
2022-11-22T19:30:45.905Z,3.08
2022-11-22T19:31:45.890Z,3.07
2022-11-22T19:32:45.878Z,3.04
2022-11-22T19:33:45.993Z,3.02
2022-11-22T19:34:45.859Z,3.02
2022-11-22T19:35:45.844Z,3.08
2022-11-22T19:36:45.842Z,3.07
2022-11-22T19:37:45.828Z,3.09
2022-11-22T19:38:45.810Z,3.14
2022-11-22T19:39:45.808Z,3.11
2022-11-22T19:40:45.802Z,3.12
2022-11-22T19:41:45.784Z,3.18
2022-11-22T19:42:45.778Z,3.17
2022-11-22T19:43:45.758Z,3.22
2022-11-22T19:44:45.743Z,3.25
2022-11-22T19:45:45.741Z,3.25
2022-11-22T19:46:45.729Z,3.23
2022-11-22T19:47:45.723Z,3.20
2022-11-22T19:48:47.372Z,3.18
2022-11-22T19:49:45.713Z,3.12
2022-11-22T19:50:45.679Z,3.07
2022-11-22T19:51:45.671Z,3.04
2022-11-22T19:52:45.667Z,3.02
2022-11-22T19:53:45.646Z,3.07
2022-11-22T19:54:45.638Z,3.07
2022-11-22T19:55:45.803Z,3.11
2022-11-22T19:56:45.622Z,3.14
2022-11-22T19:57:45.605Z,3.18
2022-11-22T19:58:45.586Z,3.22
2022-11-22T19:59:45.578Z,3.22
2022-11-22T20:00:45.618Z,3.18
2022-11-22T20:01:45.646Z,3.14
2022-11-22T20:02:45.548Z,3.11
2022-11-22T20:03:45.538Z,3.09
2022-11-22T20:04:45.522Z,3.08
2022-11-22T20:05:45.634Z,3.14
2022-11-22T20:06:49.906Z,3.18
2022-11-22T20:07:45.592Z,3.25
2022-11-22T20:08:45.480Z,3.29
2022-11-22T20:09:45.473Z,3.26
2022-11-22T20:10:45.456Z,3.22
2022-11-22T20:11:45.447Z,3.22
2022-11-22T20:12:45.433Z,3.20
2022-11-22T20:13:45.429Z,3.20
2022-11-22T20:14:45.414Z,3.23
2022-11-22T20:15:45.407Z,3.23
2022-11-22T20:16:45.398Z,3.22
2022-11-22T20:17:45.384Z,3.18
2022-11-22T20:18:45.381Z,3.18
2022-11-22T20:19:45.362Z,3.22
2022-11-22T20:20:45.352Z,3.23
2022-11-22T20:21:45.464Z,3.18
2022-11-22T20:22:45.323Z,3.14
2022-11-22T20:23:45.317Z,3.14
2022-11-22T20:24:45.308Z,3.15
2022-11-22T20:25:45.305Z,3.17